sensor_id;sensor_type;location;lat;lon;timestamp;P1;durP1;ratioP1;P2;durP2;ratioP2
16624;SDS011;8426;48.496;9.098;2023-08-21T06:10:00;11.77;;;7.97;;
16624;SDS011;8426;48.496;9.098;2023-08-21T06:15:07;12.77;;;7.22;;
16624;SDS011;8426;48.496;9.098;2023-08-21T06:20:12;9.40;;;6.88;;
16624;SDS011;8426;48.496;9.098;2023-08-21T06:25:17;14.95;;;7.10;;
16624;SDS011;8426;48.496;9.098;2023-08-21T06:30:20;10.75;;;6.95;;
16624;SDS011;8426;48.496;9.098;2023-08-21T06:35:25;11.63;;;6.53;;
16624;SDS011;8426;48.496;9.098;2023-08-21T06:40:29;12.10;;;5.35;;
16624;SDS011;8426;48.496;9.098;2023-08-21T06:45:33;11.82;;;4.80;;
16624;SDS011;8426;48.496;9.098;2023-08-21T06:50:36;5.90;;;4.45;;
16624;SDS011;8426;48.496;9.098;2023-08-21T06:55:41;5.55;;;4.35;;
16624;SDS011;8426;48.496;9.098;2023-08-21T07:00:47;12.75;;;4.70;;
16624;SDS011;8426;48.496;9.098;2023-08-21T07:05:54;8.10;;;4.47;;
16624;SDS011;8426;48.496;9.098;2023-08-21T07:10:59;6.47;;;4.50;;
16624;SDS011;8426;48.496;9.098;2023-08-21T07:16:05;5.97;;;3.90;;
16624;SDS011;8426;48.496;9.098;2023-08-21T07:21:11;9.43;;;3.97;;
16624;SDS011;8426;48.496;9.098;2023-08-21T07:26:35;5.93;;;4.38;;
16624;SDS011;8426;48.496;9.098;2023-08-21T07:31:38;8.32;;;4.10;;
16624;SDS011;8426;48.496;9.098;2023-08-21T07:36:41;5.97;;;3.65;;
16624;SDS011;8426;48.496;9.098;2023-08-21T07:41:46;6.72;;;3.80;;
16624;SDS011;8426;48.496;9.098;2023-08-21T07:46:50;9.13;;;3.85;;
16624;SDS011;8426;48.496;9.098;2023-08-21T07:51:53;6.82;;;4.20;;
16624;SDS011;8426;48.496;9.098;2023-08-21T07:56:58;9.50;;;4.05;;
16624;SDS011;8426;48.496;9.098;2023-08-21T08:02:04;6.82;;;3.78;;
16624;SDS011;8426;48.496;9.098;2023-08-21T08:07:08;7.85;;;4.35;;
16624;SDS011;8426;48.496;9.098;2023-08-21T08:12:14;9.63;;;3.67;;
16624;SDS011;8426;48.496;9.098;2023-08-21T08:17:17;7.13;;;3.42;;
16624;SDS011;8426;48.496;9.098;2023-08-21T08:22:20;6.90;;;3.70;;
16624;SDS011;8426;48.496;9.098;2023-08-21T08:27:25;7.95;;;4.15;;
16624;SDS011;8426;48.496;9.098;2023-08-21T08:32:29;7.82;;;4.05;;
16624;SDS011;8426;48.496;9.098;2023-08-21T08:37:33;14.13;;;3.97;;
16624;SDS011;8426;48.496;9.098;2023-08-21T08:42:38;6.68;;;3.88;;
16624;SDS011;8426;48.496;9.098;2023-08-21T08:47:41;6.25;;;3.80;;
16624;SDS011;8426;48.496;9.098;2023-08-21T08:52:45;9.63;;;4.22;;
16624;SDS011;8426;48.496;9.098;2023-08-21T08:57:51;8.68;;;4.25;;
16624;SDS011;8426;48.496;9.098;2023-08-21T09:02:54;18.70;;;4.45;;
16624;SDS011;8426;48.496;9.098;2023-08-21T09:08:02;8.45;;;4.25;;
16624;SDS011;8426;48.496;9.098;2023-08-21T09:13:15;13.80;;;4.22;;
16624;SDS011;8426;48.496;9.098;2023-08-21T09:18:20;7.45;;;3.63;;
16624;SDS011;8426;48.496;9.098;2023-08-21T09:23:24;9.82;;;4.05;;
16624;SDS011;8426;48.496;9.098;2023-08-21T09:28:32;5.75;;;3.72;;
16624;SDS011;8426;48.496;9.098;2023-08-21T09:33:36;9.40;;;3.60;;
16624;SDS011;8426;48.496;9.098;2023-08-21T09:38:39;6.75;;;4.18;;
16624;SDS011;8426;48.496;9.098;2023-08-21T09:43:49;5.57;;;3.38;;
16624;SDS011;8426;48.496;9.098;2023-08-21T09:48:53;7.95;;;3.90;;
16624;SDS011;8426;48.496;9.098;2023-08-21T09:53:58;10.65;;;3.95;;
16624;SDS011;8426;48.496;9.098;2023-08-21T09:59:06;8.05;;;4.25;;
16624;SDS011;8426;48.496;9.098;2023-08-21T10:04:10;7.93;;;3.80;;
16624;SDS011;8426;48.496;9.098;2023-08-21T10:09:14;12.55;;;4.18;;
16624;SDS011;8426;48.496;9.098;2023-08-21T10:14:22;6.25;;;4.50;;
16624;SDS011;8426;48.496;9.098;2023-08-21T10:19:30;13.30;;;4.32;;
16624;SDS011;8426;48.496;9.098;2023-08-21T10:24:34;9.18;;;5.00;;
16624;SDS011;8426;48.496;9.098;2023-08-21T10:29:40;18.63;;;5.03;;
16624;SDS011;8426;48.496;9.098;2023-08-21T10:34:51;8.63;;;4.90;;
16624;SDS011;8426;48.496;9.098;2023-08-21T10:39:56;9.00;;;4.63;;
16624;SDS011;8426;48.496;9.098;2023-08-21T10:45:02;12.10;;;4.75;;
16624;SDS011;8426;48.496;9.098;2023-08-21T10:50:13;8.00;;;4.93;;
16624;SDS011;8426;48.496;9.098;2023-08-21T10:55:16;8.85;;;4.97;;
16624;SDS011;8426;48.496;9.098;2023-08-21T11:00:23;8.65;;;4.63;;
16624;SDS011;8426;48.496;9.098;2023-08-21T11:05:27;9.77;;;4.72;;
16624;SDS011;8426;48.496;9.098;2023-08-21T11:10:33;13.20;;;4.72;;
16624;SDS011;8426;48.496;9.098;2023-08-21T11:15:40;13.25;;;5.00;;
16624;SDS011;8426;48.496;9.098;2023-08-21T11:20:44;11.18;;;4.55;;
16624;SDS011;8426;48.496;9.098;2023-08-21T11:25:49;13.50;;;5.05;;
16624;SDS011;8426;48.496;9.098;2023-08-21T11:30:58;11.02;;;4.93;;
16624;SDS011;8426;48.496;9.098;2023-08-21T11:36:06;7.35;;;4.80;;
16624;SDS011;8426;48.496;9.098;2023-08-21T11:41:11;5.07;;;4.20;;
16624;SDS011;8426;48.496;9.098;2023-08-21T11:46:17;7.78;;;4.88;;
16624;SDS011;8426;48.496;9.098;2023-08-21T11:51:22;10.10;;;5.38;;
16624;SDS011;8426;48.496;9.098;2023-08-21T11:56:27;11.60;;;4.85;;
16624;SDS011;8426;48.496;9.098;2023-08-21T12:01:34;8.85;;;4.68;;
16624;SDS011;8426;48.496;9.098;2023-08-21T12:06:43;8.43;;;4.85;;
16624;SDS011;8426;48.496;9.098;2023-08-21T12:11:48;12.85;;;4.78;;
16624;SDS011;8426;48.496;9.098;2023-08-21T12:16:54;12.43;;;4.60;;
16624;SDS011;8426;48.496;9.098;2023-08-21T12:21:59;8.75;;;5.10;;
16624;SDS011;8426;48.496;9.098;2023-08-21T12:27:06;9.93;;;4.97;;
16624;SDS011;8426;48.496;9.098;2023-08-21T12:32:11;11.02;;;5.20;;
16624;SDS011;8426;48.496;9.098;2023-08-21T12:37:15;7.88;;;4.70;;
16624;SDS011;8426;48.496;9.098;2023-08-21T12:42:21;10.75;;;4.95;;
16624;SDS011;8426;48.496;9.098;2023-08-21T12:47:31;9.10;;;4.50;;
16624;SDS011;8426;48.496;9.098;2023-08-21T12:57:54;12.82;;;4.88;;
16624;SDS011;8426;48.496;9.098;2023-08-21T13:03:01;7.70;;;4.95;;
16624;SDS011;8426;48.496;9.098;2023-08-21T13:08:08;7.97;;;4.50;;
16624;SDS011;8426;48.496;9.098;2023-08-21T13:13:13;10.52;;;4.85;;
16624;SDS011;8426;48.496;9.098;2023-08-21T13:18:19;7.70;;;4.45;;
16624;SDS011;8426;48.496;9.098;2023-08-21T13:23:28;10.50;;;5.20;;
16624;SDS011;8426;48.496;9.098;2023-08-21T13:28:36;8.00;;;5.03;;
16624;SDS011;8426;48.496;9.098;2023-08-21T13:33:49;12.70;;;4.25;;
16624;SDS011;8426;48.496;9.098;2023-08-21T13:38:56;7.28;;;4.28;;
16624;SDS011;8426;48.496;9.098;2023-08-21T13:44:01;6.80;;;4.20;;
16624;SDS011;8426;48.496;9.098;2023-08-21T13:49:09;8.32;;;4.50;;
16624;SDS011;8426;48.496;9.098;2023-08-21T13:54:15;11.18;;;4.93;;
16624;SDS011;8426;48.496;9.098;2023-08-21T13:59:21;14.23;;;4.18;;
16624;SDS011;8426;48.496;9.098;2023-08-21T14:04:29;9.90;;;4.18;;
16624;SDS011;8426;48.496;9.098;2023-08-21T14:09:35;7.50;;;4.40;;
16624;SDS011;8426;48.496;9.098;2023-08-21T14:20:13;7.03;;;4.28;;
16624;SDS011;8426;48.496;9.098;2023-08-21T14:25:19;10.07;;;4.45;;
16624;SDS011;8426;48.496;9.098;2023-08-21T14:30:33;11.02;;;4.68;;
16624;SDS011;8426;48.496;9.098;2023-08-21T14:35:42;12.85;;;4.63;;
16624;SDS011;8426;48.496;9.098;2023-08-21T14:40:46;8.43;;;4.45;;
16624;SDS011;8426;48.496;9.098;2023-08-21T14:45:52;8.98;;;4.85;;
16624;SDS011;8426;48.496;9.098;2023-08-21T14:50:58;5.68;;;3.83;;
16624;SDS011;8426;48.496;9.098;2023-08-21T15:01:59;8.93;;;4.43;;
16624;SDS011;8426;48.496;9.098;2023-08-21T15:07:04;15.32;;;4.57;;
16624;SDS011;8426;48.496;9.098;2023-08-21T15:12:16;9.38;;;4.90;;
16624;SDS011;8426;48.496;9.098;2023-08-21T15:17:21;12.52;;;4.75;;
16624;SDS011;8426;48.496;9.098;2023-08-21T15:22:36;6.88;;;4.53;;
16624;SDS011;8426;48.496;9.098;2023-08-21T15:27:40;6.10;;;4.65;;
16624;SDS011;8426;48.496;9.098;2023-08-21T15:32:52;8.15;;;4.30;;
16624;SDS011;8426;48.496;9.098;2023-08-21T15:37:59;11.00;;;4.85;;
16624;SDS011;8426;48.496;9.098;2023-08-21T15:43:04;10.68;;;4.60;;
16624;SDS011;8426;48.496;9.098;2023-08-21T15:48:09;5.43;;;4.10;;
16624;SDS011;8426;48.496;9.098;2023-08-21T15:53:17;9.60;;;4.72;;
16624;SDS011;8426;48.496;9.098;2023-08-21T15:58:21;17.77;;;5.25;;
16624;SDS011;8426;48.496;9.098;2023-08-21T16:03:33;11.20;;;5.03;;
16624;SDS011;8426;48.496;9.098;2023-08-21T16:08:39;16.23;;;4.93;;
16624;SDS011;8426;48.496;9.098;2023-08-21T16:13:46;7.70;;;5.00;;
16624;SDS011;8426;48.496;9.098;2023-08-21T16:18:50;10.63;;;4.50;;
16624;SDS011;8426;48.496;9.098;2023-08-21T16:24:11;10.25;;;4.90;;
16624;SDS011;8426;48.496;9.098;2023-08-21T16:29:26;8.57;;;5.40;;
16624;SDS011;8426;48.496;9.098;2023-08-21T16:34:32;12.77;;;5.30;;
16624;SDS011;8426;48.496;9.098;2023-08-21T16:39:40;9.02;;;4.88;;
16624;SDS011;8426;48.496;9.098;2023-08-21T16:44:46;13.73;;;4.72;;
16624;SDS011;8426;48.496;9.098;2023-08-21T16:49:53;8.85;;;4.50;;
16624;SDS011;8426;48.496;9.098;2023-08-21T16:55:04;10.38;;;5.10;;
16624;SDS011;8426;48.496;9.098;2023-08-21T17:00:17;9.60;;;5.15;;
16624;SDS011;8426;48.496;9.098;2023-08-21T17:05:25;15.80;;;5.03;;
16624;SDS011;8426;48.496;9.098;2023-08-21T17:10:40;5.88;;;4.20;;
16624;SDS011;8426;48.496;9.098;2023-08-21T17:15:48;10.95;;;4.93;;
16624;SDS011;8426;48.496;9.098;2023-08-21T17:21:09;8.95;;;5.10;;
16624;SDS011;8426;48.496;9.098;2023-08-21T17:26:22;11.82;;;5.40;;
16624;SDS011;8426;48.496;9.098;2023-08-21T17:31:31;7.82;;;4.55;;
16624;SDS011;8426;48.496;9.098;2023-08-21T17:36:37;8.70;;;4.50;;
16624;SDS011;8426;48.496;9.098;2023-08-21T17:41:45;12.93;;;4.30;;
16624;SDS011;8426;48.496;9.098;2023-08-21T17:46:55;10.57;;;4.68;;
16624;SDS011;8426;48.496;9.098;2023-08-21T17:52:01;9.32;;;4.60;;
16624;SDS011;8426;48.496;9.098;2023-08-21T17:57:09;11.63;;;4.75;;
16624;SDS011;8426;48.496;9.098;2023-08-21T18:07:45;8.05;;;5.10;;
16624;SDS011;8426;48.496;9.098;2023-08-21T18:12:57;7.57;;;4.40;;
16624;SDS011;8426;48.496;9.098;2023-08-21T18:18:03;9.38;;;4.13;;
16624;SDS011;8426;48.496;9.098;2023-08-21T18:23:12;11.45;;;4.45;;
16624;SDS011;8426;48.496;9.098;2023-08-21T18:28:27;5.38;;;4.70;;
16624;SDS011;8426;48.496;9.098;2023-08-21T18:33:32;8.10;;;4.93;;
16624;SDS011;8426;48.496;9.098;2023-08-21T18:39:14;8.05;;;4.82;;
16624;SDS011;8426;48.496;9.098;2023-08-21T19:17:59;5.60;;;4.97;;
16624;SDS011;8426;48.496;9.098;2023-08-21T19:23:25;9.50;;;5.40;;
16624;SDS011;8426;48.496;9.098;2023-08-21T19:28:44;10.52;;;5.20;;
16624;SDS011;8426;48.496;9.098;2023-08-21T19:33:56;13.95;;;5.05;;
16624;SDS011;8426;48.496;9.098;2023-08-21T19:39:06;11.60;;;5.22;;
